Time;durP1;ratioP1;P1;durP2;ratioP2;P2;SDS_P1;SDS_P2;PMS_P1;PMS_P2;Temp;Humidity;BMP_temperature;BMP_pressure;BME280_temperature;BME280_humidity;BME280_pressure;Samples;Min_cycle;Max_cycle;Signal;HPM_P1;HPM_P2
2023/06/19 10:01:20;;;;;;;6.62;6.03;;;;;;;32.21;37.02;100342.56;1887067;76;26838;-63
2023/06/19 10:03:48;;;;;;;6.30;5.80;;;;;;;32.23;37.53;100336.52;1858073;77;25581;-65
2023/06/19 10:06:20;;;;;;;6.45;5.75;;;;;;;32.37;37.04;100336.75;1858160;77;27476;-65
2023/06/19 10:08:46;;;;;;;6.65;6.08;;;;;;;32.50;36.79;100335.87;1856631;77;25730;-65
2023/06/19 10:11:14;;;;;;;6.22;5.62;;;;;;;32.92;37.45;100322.82;1856607;77;25719;-65
2023/06/19 10:13:44;;;;;;;7.62;5.42;;;;;;;33.23;36.40;100329.73;1824772;77;25540;-64
2023/06/19 10:16:24;;;;;;;6.85;6.20;;;;;;;33.22;36.12;100324.59;1858080;77;25352;-66
2023/06/19 10:18:51;;;;;;;8.33;7.45;;;;;;;33.22;36.12;100324.59;1825299;77;26746;-68
2023/06/19 10:21:21;;;;;;;15.88;14.38;;;;;;;33.20;35.65;100327.09;1857901;77;25568;-67
2023/06/19 10:23:58;;;;;;;6.78;6.17;;;;;;;33.04;35.52;100315.53;1858091;77;25359;-67
2023/06/19 10:26:37;;;;;;;6.45;5.85;;;;;;;33.27;35.92;100319.17;1823534;77;25783;-67
2023/06/19 10:29:17;;;;;;;7.03;6.30;;;;;;;33.59;35.43;100317.61;1787096;80;25755;-67
2023/06/19 10:31:45;;;;;;;7.17;5.87;;;;;;;33.92;35.06;100316.36;1817960;78;29624;-66
2023/06/19 10:34:13;;;;;;;6.45;5.95;;;;;;;34.28;35.12;100314.73;1787045;80;25876;-66
2023/06/19 10:36:40;;;;;;;7.45;6.78;;;;;;;34.49;34.02;100317.76;1819349;78;25693;-67
2023/06/19 10:39:07;;;;;;;7.65;6.95;;;;;;;34.46;33.07;100315.89;1786912;80;25671;-68
2023/06/19 10:41:34;;;;;;;7.25;6.55;;;;;;;34.00;33.14;100311.98;1820442;78;25532;-58
2023/06/19 10:44:12;;;;;;;7.40;6.30;;;;;;;33.31;33.19;100308.58;1788026;80;28175;-58
2023/06/19 10:46:37;;;;;;;8.25;7.50;;;;;;;32.82;34.25;100314.24;1818801;78;25623;-57
2023/06/19 10:49:10;;;;;;;10.25;9.05;;;;;;;32.72;35.02;100300.83;1788190;80;25625;-64
2023/06/19 10:51:43;;;;;;;7.50;6.85;;;;;;;32.84;34.64;100301.32;1820430;78;25605;-64
2023/06/19 10:54:11;;;;;;;8.23;7.10;;;;;;;32.47;33.51;100306.00;1788178;80;25608;-65
2023/06/19 10:56:38;;;;;;;7.55;6.80;;;;;;;32.47;33.51;100306.00;1820452;78;27590;-63
2023/06/19 10:59:15;;;;;;;9.03;6.53;;;;;;;33.06;35.03;100319.41;1787894;80;25361;-63
2023/06/19 11:01:46;;;;;;;9.88;7.33;;;;;;;33.06;35.03;100319.41;1786366;80;25468;-65
2023/06/19 11:04:16;;;;;;;8.38;7.58;;;;;;;33.54;35.20;100324.61;1788054;80;25580;-62
2023/06/19 11:06:47;;;;;;;7.35;6.72;;;;;;;33.54;34.24;100307.79;1788112;80;25626;-63
2023/06/19 11:09:13;;;;;;;8.13;7.28;;;;;;;33.18;33.87;100307.17;1788154;80;27533;-63
2023/06/19 11:11:48;;;;;;;8.38;7.47;;;;;;;32.41;33.39;100310.66;1787586;80;25597;-64
2023/06/19 11:14:18;;;;;;;8.23;7.33;;;;;;;32.41;33.39;100310.66;1787567;80;25550;-64
2023/06/19 11:16:49;;;;;;;7.87;7.08;;;;;;;31.81;33.48;100306.25;1787425;80;27380;-63
2023/06/19 11:19:20;;;;;;;7.00;6.30;;;;;;;31.41;34.21;100300.48;1787445;80;25375;-64
2023/06/19 11:21:50;;;;;;;7.35;6.65;;;;;;;31.17;35.18;100293.91;1786626;80;27733;-64
2023/06/19 11:24:20;;;;;;;12.75;6.78;;;;;;;31.02;35.58;100299.22;1787360;80;25601;-65
2023/06/19 11:26:50;;;;;;;7.50;6.62;;;;;;;30.84;35.69;100293.41;1756745;80;25494;-65
2023/06/19 11:29:22;;;;;;;7.40;6.45;;;;;;;30.65;35.61;100300.78;1787425;80;27335;-63
2023/06/19 11:31:54;;;;;;;8.35;7.15;;;;;;;30.47;35.68;100293.77;1787557;80;25572;-64
2023/06/19 11:34:26;;;;;;;8.95;7.22;;;;;;;30.31;35.70;100291.84;1756805;80;26883;-62
2023/06/19 11:36:52;;;;;;;10.40;7.00;;;;;;;30.22;35.78;100286.75;1785437;80;25469;-63
2023/06/19 11:39:20;;;;;;;9.27;6.93;;;;;;;30.11;36.90;100282.28;1787635;80;25620;-64
2023/06/19 11:41:46;;;;;;;8.53;7.20;;;;;;;30.29;36.17;100276.17;1755604;80;25573;-63
2023/06/19 11:44:13;;;;;;;8.68;6.22;;;;;;;30.16;35.81;100281.72;1787412;80;25567;-66
2023/06/19 11:46:39;;;;;;;8.65;7.28;;;;;;;29.97;36.36;100284.87;1787375;80;27565;-66
2023/06/19 11:49:18;;;;;;;8.25;7.40;;;;;;;29.78;36.67;100279.66;1787339;80;25621;-65
2023/06/19 11:51:48;;;;;;;7.37;6.70;;;;;;;29.59;36.42;100282.75;1787515;80;25474;-66
2023/06/19 11:54:17;;;;;;;7.03;6.42;;;;;;;29.40;36.29;100281.65;1787415;80;25360;-64
2023/06/19 11:56:44;;;;;;;7.00;6.30;;;;;;;29.21;36.53;100275.61;1787516;80;25476;-63
2023/06/19 11:59:16;;;;;;;7.60;6.95;;;;;;;29.02;36.65;100275.88;1787577;80;27553;-63
2023/06/19 12:01:43;;;;;;;6.85;6.20;;;;;;;28.91;37.42;100272.56;1787297;77;25391;-63
2023/06/19 12:04:10;;;;;;;7.42;6.72;;;;;;;29.30;38.60;100268.02;1787362;80;25377;-63
2023/06/19 12:06:37;;;;;;;7.83;6.78;;;;;;;29.87;38.16;100276.84;1787322;80;25363;-63
2023/06/19 12:09:06;;;;;;;9.48;7.03;;;;;;;29.91;36.98;100271.92;1787420;80;25521;-63
2023/06/19 12:11:32;;;;;;;7.25;6.60;;;;;;;29.71;36.63;100270.67;1787433;80;27534;-63
2023/06/19 12:13:58;;;;;;;7.70;7.10;;;;;;;29.43;36.69;100265.45;1787365;80;25748;-63
2023/06/19 12:16:25;;;;;;;7.97;6.50;;;;;;;29.22;36.80;100263.27;1787397;80;25363;-63
2023/06/19 12:18:54;;;;;;;7.62;6.80;;;;;;;29.02;36.97;100267.52;1787416;80;25805;-64
2023/06/19 12:21:20;;;;;;;7.50;6.77;;;;;;;29.21;37.54;100267.26;1787695;80;25629;-63
2023/06/19 12:23:46;;;;;;;11.12;7.40;;;;;;;29.65;37.33;100266.27;1787396;80;27477;-63
2023/06/19 12:26:12;;;;;;;6.90;6.17;;;;;;;30.06;36.66;100259.75;1787288;80;25534;-63
2023/06/19 12:28:38;;;;;;;6.87;6.20;;;;;;;30.56;36.20;100260.99;1787365;80;25552;-63
2023/06/19 12:31:24;;;;;;;6.45;5.95;;;;;;;30.71;36.15;100253.72;1787396;80;25385;-63
2023/06/19 12:33:50;;;;;;;9.13;8.03;;;;;;;31.18;35.52;100253.58;1734312;82;25604;-63
2023/06/19 12:36:17;;;;;;;6.60;6.10;;;;;;;31.45;34.84;100254.42;1734790;82;27571;-63
2023/06/19 12:38:44;;;;;;;5.75;5.35;;;;;;;31.48;34.22;100255.52;1734152;82;25442;-63
2023/06/19 12:41:12;;;;;;;6.47;5.80;;;;;;;31.36;33.70;100249.38;1734712;82;25389;-64
2023/06/19 12:43:39;;;;;;;5.83;5.42;;;;;;;31.14;33.63;100254.93;1703351;84;25615;-64
2023/06/19 12:46:05;;;;;;;8.93;5.95;;;;;;;30.88;33.83;100255.75;1734336;82;25658;-64
2023/06/19 12:48:33;;;;;;;5.95;5.40;;;;;;;30.62;34.01;100251.47;1715396;79;27550;-68
2023/06/19 12:50:59;;;;;;;6.72;6.12;;;;;;;30.35;34.10;100252.67;1674841;85;25869;-67
2023/06/19 12:53:29;;;;;;;17.30;15.60;;;;;;;30.17;34.22;100248.44;1690425;84;25454;-68
2023/06/19 12:55:53;;;;;;;25.85;23.22;;;;;;;30.01;34.49;100242.17;1690248;84;25537;-67
2023/06/19 12:58:19;;;;;;;7.78;6.97;;;;;;;29.87;34.67;100246.95;1690486;84;25419;-69
2023/06/19 13:00:46;;;;;;;7.70;6.25;;;;;;;29.70;34.65;100246.21;1690315;84;27518;-66
2023/06/19 13:03:12;;;;;;;5.78;5.37;;;;;;;29.60;34.96;100247.30;1690370;84;25406;-65
2023/06/19 13:05:39;;;;;;;6.03;5.53;;;;;;;29.52;35.18;100247.33;1690350;84;25586;-65
2023/06/19 13:08:05;;;;;;;6.65;6.05;;;;;;;29.51;35.62;100245.75;1690310;84;25580;-66
2023/06/19 13:10:32;;;;;;;5.87;5.37;;;;;;;29.75;36.46;100242.88;1690357;84;25425;-66
2023/06/19 13:12:58;;;;;;;8.15;6.03;;;;;;;30.22;36.89;100237.94;1690333;84;27484;-65
2023/06/19 13:15:25;;;;;;;8.20;5.55;;;;;;;30.57;35.88;100233.89;1690235;84;25610;-66
2023/06/19 13:17:51;;;;;;;5.55;5.00;;;;;;;30.92;35.02;100230.50;1690348;84;25429;-66
2023/06/19 13:20:18;;;;;;;8.78;6.03;;;;;;;31.18;35.30;100227.67;1690295;84;25466;-65
2023/06/19 13:22:44;;;;;;;6.72;6.05;;;;;;;31.38;34.56;100220.35;1690392;84;25422;-66
2023/06/19 13:25:11;;;;;;;6.95;5.95;;;;;;;31.63;34.14;100218.84;1690380;84;28209;-66
2023/06/19 13:27:37;;;;;;;6.15;5.55;;;;;;;31.60;33.40;100219.78;1690219;84;27287;-66
2023/06/19 13:30:07;;;;;;;9.30;6.60;;;;;;;31.55;33.69;100214.78;1690334;84;25569;-67
2023/06/19 13:32:33;;;;;;;6.40;5.87;;;;;;;31.39;33.10;100219.90;1690370;84;25610;-71
2023/06/19 13:34:59;;;;;;;6.55;5.20;;;;;;;31.10;32.70;100218.12;1690427;84;25434;-66
2023/06/19 13:37:25;;;;;;;6.00;5.50;;;;;;;31.01;32.71;100207.52;1690404;84;27531;-65
2023/06/19 13:39:51;;;;;;;5.95;5.40;;;;;;;31.01;33.62;100209.68;1690337;84;25851;-65
2023/06/19 13:42:17;;;;;;;6.10;5.53;;;;;;;31.11;33.45;100204.96;1690338;84;25500;-65
2023/06/19 13:44:44;;;;;;;159.72;143.78;;;;;;;31.33;33.82;100201.38;1690312;84;25388;-68
2023/06/19 13:47:11;;;;;;;29.45;26.37;;;;;;;31.49;33.28;100206.78;1748257;78;25520;-68
2023/06/19 13:49:38;;;;;;;74.00;66.65;;;;;;;31.65;32.93;100202.41;1774701;79;27545;-67
2023/06/19 13:52:06;;;;;;;14.50;12.03;;;;;;;31.85;32.89;100206.86;1774617;79;26079;-60
2023/06/19 13:54:33;;;;;;;5.80;5.28;;;;;;;32.06;32.29;100202.46;1774788;80;25401;-62
2023/06/19 13:57:00;;;;;;;7.35;5.67;;;;;;;32.26;32.88;100206.27;1774682;80;25578;-62
2023/06/19 13:59:26;;;;;;;7.80;5.28;;;;;;;32.38;32.41;100202.57;1774636;80;25359;-63
2023/06/19 14:01:53;;;;;;;6.05;5.33;;;;;;;32.45;32.53;100191.70;1774615;80;27549;-62
2023/06/19 14:04:20;;;;;;;6.20;5.67;;;;;;;32.44;32.46;100192.16;1774843;80;25511;-61
2023/06/19 14:06:48;;;;;;;7.90;5.65;;;;;;;32.41;32.45;100194.52;1774727;80;25417;-62
2023/06/19 14:09:14;;;;;;;6.75;6.05;;;;;;;32.38;31.96;100194.80;1774582;80;25463;-62
2023/06/19 14:11:41;;;;;;;7.37;6.05;;;;;;;32.25;32.16;100190.73;1774652;79;25428;-63
2023/06/19 14:14:07;;;;;;;6.30;5.72;;;;;;;32.08;32.18;100192.22;1774658;80;27620;-61
2023/06/19 14:16:33;;;;;;;7.25;5.78;;;;;;;31.90;32.34;100192.91;1774511;80;25377;-62
2023/06/19 14:18:59;;;;;;;8.20;5.40;;;;;;;31.83;32.58;100193.33;1774666;80;25561;-63
2023/06/19 14:21:26;;;;;;;10.45;6.00;;;;;;;31.83;32.71;100195.36;1774665;80;25511;-61
2023/06/19 14:23:53;;;;;;;6.33;5.60;;;;;;;31.79;32.65;100195.50;1774860;79;25457;-63
2023/06/19 14:26:19;;;;;;;6.97;6.20;;;;;;;31.79;32.81;100183.52;1774871;80;27428;-63
2023/06/19 14:28:45;;;;;;;7.42;5.85;;;;;;;31.74;32.80;100188.30;1774531;80;27401;-63
2023/06/19 14:31:12;;;;;;;6.83;5.90;;;;;;;31.72;32.54;100187.39;1774824;80;25538;-61
2023/06/19 14:33:38;;;;;;;7.60;6.33;;;;;;;31.70;32.55;100180.05;1774748;80;27690;-60
2023/06/19 14:36:05;;;;;;;7.03;5.97;;;;;;;31.69;32.72;100172.92;1774830;80;25457;-60
2023/06/19 14:38:33;;;;;;;6.50;5.67;;;;;;;31.69;32.96;100180.52;1774672;80;28062;-59
2023/06/19 14:41:02;;;;;;;5.97;5.40;;;;;;;31.67;32.67;100176.00;1774773;80;25924;-59
2023/06/19 14:43:30;;;;;;;6.53;5.92;;;;;;;31.67;33.09;100178.80;1774816;80;35031;-52
2023/06/19 14:45:56;;;;;;;6.00;5.50;;;;;;;31.64;32.48;100176.31;1774996;79;25560;-66
2023/06/19 14:48:22;;;;;;;7.00;6.03;;;;;;;31.59;32.18;100178.30;1774401;80;25372;-68
2023/06/19 14:50:48;;;;;;;6.80;6.20;;;;;;;31.52;32.02;100172.96;1774378;80;27371;-66
2023/06/19 14:53:15;;;;;;;7.17;5.87;;;;;;;31.40;31.91;100180.19;1774198;80;27310;-67
2023/06/19 14:55:45;;;;;;;6.08;5.47;;;;;;;31.28;31.75;100175.59;1774316;80;25539;-66
2023/06/19 14:58:09;;;;;;;6.25;5.75;;;;;;;31.20;32.15;100172.89;1773975;80;25577;-66
2023/06/19 15:00:38;;;;;;;7.80;7.10;;;;;;;31.18;32.17;100178.79;1774372;80;25420;-66
2023/06/19 15:03:05;;;;;;;6.73;6.03;;;;;;;30.95;31.50;100174.41;1774239;80;29622;-67
2023/06/19 15:05:33;;;;;;;7.23;5.63;;;;;;;30.69;31.56;100179.42;1774459;79;25683;-63
2023/06/19 15:08:01;;;;;;;5.80;5.25;;;;;;;30.42;32.49;100175.74;1774389;80;25378;-63
2023/06/19 15:10:28;;;;;;;5.40;4.90;;;;;;;30.32;32.43;100174.83;1774256;80;26000;-63
2023/06/19 15:12:54;;;;;;;7.97;5.72;;;;;;;30.25;32.55;100171.50;1774306;79;25178;-64
2023/06/19 15:15:21;;;;;;;5.05;4.55;;;;;;;30.15;32.53;100164.44;1774241;80;29788;-64
2023/06/19 15:17:47;;;;;;;7.05;5.15;;;;;;;30.10;32.66;100167.77;1774149;80;25395;-62
2023/06/19 15:20:16;;;;;;;7.40;5.10;;;;;;;30.07;33.08;100167.88;1774227;80;25580;-64
2023/06/19 15:22:41;;;;;;;5.62;5.12;;;;;;;30.03;33.07;100165.83;1774130;80;26015;-66
2023/06/19 15:25:08;;;;;;;6.55;5.90;;;;;;;30.00;33.18;100170.27;1774271;80;25632;-64
2023/06/19 15:27:34;;;;;;;7.40;5.85;;;;;;;29.87;32.27;100163.94;1774239;80;27496;-65
2023/06/19 15:30:02;;;;;;;6.28;5.67;;;;;;;29.69;32.96;100169.39;1774156;80;25571;-62
2023/06/19 15:32:29;;;;;;;9.08;5.47;;;;;;;29.60;32.77;100165.09;1774248;80;25452;-65
2023/06/19 15:34:55;;;;;;;6.83;5.55;;;;;;;29.55;33.04;100168.44;1774189;80;25498;-60
2023/06/19 15:37:21;;;;;;;6.83;5.78;;;;;;;29.49;33.52;100157.66;1774211;79;25492;-61
2023/06/19 15:39:48;;;;;;;6.72;5.75;;;;;;;29.44;33.08;100165.97;1774201;79;27482;-58
2023/06/19 15:42:15;;;;;;;6.95;6.10;;;;;;;29.41;34.20;100166.84;1774098;80;25388;-62
2023/06/19 15:44:41;;;;;;;7.53;6.20;;;;;;;29.38;34.27;100163.55;1774176;79;25581;-60
2023/06/19 15:47:08;;;;;;;6.60;6.00;;;;;;;29.35;34.15;100163.03;1774069;80;25563;-59
2023/06/19 15:49:36;;;;;;;7.10;6.20;;;;;;;29.28;34.60;100168.19;1774061;80;25431;-60
2023/06/19 15:52:05;;;;;;;6.47;5.40;;;;;;;29.20;34.59;100175.98;1774086;80;27583;-59
2023/06/19 15:54:31;;;;;;;6.20;5.58;;;;;;;29.12;34.52;100174.58;1773378;80;25664;-66
2023/06/19 15:56:58;;;;;;;8.43;6.87;;;;;;;29.06;34.78;100168.78;1773880;80;25530;-67
2023/06/19 15:59:26;;;;;;;10.15;8.63;;;;;;;29.01;34.68;100172.09;1773817;80;25565;-66
2023/06/19 16:01:52;;;;;;;7.97;6.25;;;;;;;28.94;34.50;100174.27;1773968;80;25523;-63
2023/06/19 16:04:18;;;;;;;7.92;6.00;;;;;;;28.86;34.38;100170.30;1773973;80;27562;-65
2023/06/19 16:06:44;;;;;;;6.58;6.00;;;;;;;28.75;34.35;100167.62;1774041;80;25595;-69
2023/06/19 16:09:10;;;;;;;6.67;5.95;;;;;;;28.69;34.62;100170.16;1774121;80;25564;-67
2023/06/19 16:11:37;;;;;;;6.17;5.67;;;;;;;28.63;34.36;100170.50;1774159;80;25577;-69
2023/06/19 16:14:03;;;;;;;6.65;6.05;;;;;;;28.56;34.30;100169.30;1774164;80;25484;-68
2023/06/19 16:16:29;;;;;;;6.42;5.83;;;;;;;28.52;35.00;100170.75;1774120;80;27591;-65
2023/06/19 16:18:55;;;;;;;10.32;5.67;;;;;;;28.45;35.48;100174.48;1774127;80;25408;-67
2023/06/19 16:21:22;;;;;;;9.25;6.17;;;;;;;28.39;35.23;100169.88;1773060;80;25674;-67
2023/06/19 16:23:48;;;;;;;7.62;5.85;;;;;;;28.32;35.17;100176.39;1774098;80;25621;-65
2023/06/19 16:26:16;;;;;;;7.22;6.53;;;;;;;28.27;35.27;100172.74;1774135;80;25423;-65
2023/06/19 16:28:42;;;;;;;7.00;5.90;;;;;;;28.22;35.66;100173.27;1774393;80;27541;-65
2023/06/19 16:31:09;;;;;;;9.28;6.05;;;;;;;28.21;35.48;100173.08;1774057;80;25567;-65
2023/06/19 16:33:38;;;;;;;6.50;5.80;;;;;;;28.17;35.58;100171.77;1774338;80;25602;-66
2023/06/19 16:36:06;;;;;;;6.60;5.85;;;;;;;28.15;35.82;100175.60;1774248;80;25546;-67
2023/06/19 16:38:32;;;;;;;11.43;5.90;;;;;;;28.12;35.86;100181.41;1774201;80;25477;-66
2023/06/19 16:40:58;;;;;;;6.15;5.65;;;;;;;28.09;35.91;100179.52;1774085;80;27447;-66
2023/06/19 16:43:25;;;;;;;8.18;5.95;;;;;;;28.03;36.02;100179.06;1774059;80;25442;-64
2023/06/19 16:45:51;;;;;;;8.03;6.25;;;;;;;27.97;35.82;100182.95;1774131;79;25429;-64
2023/06/19 16:48:17;;;;;;;6.30;5.70;;;;;;;27.89;35.48;100175.95;1774420;79;25491;-65
2023/06/19 16:50:43;;;;;;;8.68;6.90;;;;;;;27.77;35.59;100177.42;1774718;80;25418;-65
2023/06/19 16:53:12;;;;;;;36.50;32.65;;;;;;;27.69;35.89;100183.72;1774735;80;28608;-65
2023/06/19 16:55:39;;;;;;;15.72;12.45;;;;;;;27.62;35.90;100183.08;1774906;80;25370;-64
2023/06/19 16:58:05;;;;;;;7.28;6.05;;;;;;;27.53;36.29;100179.49;1748027;80;25652;-65
2023/06/19 17:00:31;;;;;;;7.95;5.65;;;;;;;27.47;36.59;100178.45;1748273;80;25628;-65
2023/06/19 17:02:58;;;;;;;6.75;6.15;;;;;;;27.37;36.68;100179.61;1774704;80;25547;-66
2023/06/19 17:05:26;;;;;;;9.33;6.87;;;;;;;27.27;36.88;100175.63;1774700;80;27798;-66
2023/06/19 17:07:53;;;;;;;14.83;10.53;;;;;;;27.16;37.24;100168.30;1774520;80;25467;-59
2023/06/19 17:10:22;;;;;;;7.85;7.03;;;;;;;27.07;37.59;100169.44;1774584;80;25548;-59
2023/06/19 17:12:49;;;;;;;7.22;6.53;;;;;;;27.00;37.93;100179.30;1774619;80;25488;-60
2023/06/19 17:15:17;;;;;;;35.78;33.42;;;;;;;26.90;38.18;100174.73;1774640;80;25358;-60
2023/06/19 17:17:43;;;;;;;14.70;13.50;;;;;;;26.81;38.87;100181.61;1774896;80;28178;-60
2023/06/19 17:20:12;;;;;;;72.65;68.22;;;;;;;26.73;38.85;100184.34;1774516;80;25618;-63
2023/06/19 17:22:40;;;;;;;7.35;6.30;;;;;;;26.62;39.35;100176.19;1774614;80;25560;-62
2023/06/19 17:25:08;;;;;;;7.28;6.58;;;;;;;26.56;39.49;100186.77;1774617;80;25548;-62
2023/06/19 17:27:35;;;;;;;11.55;6.78;;;;;;;26.47;39.62;100188.08;1774770;80;25571;-60
2023/06/19 17:30:03;;;;;;;8.00;6.20;;;;;;;26.41;39.72;100189.00;1774633;80;28123;-62
2023/06/19 17:32:30;;;;;;;9.28;7.70;;;;;;;26.36;40.17;100193.03;1774680;80;25561;-60
2023/06/19 17:34:59;;;;;;;11.18;8.18;;;;;;;26.29;40.14;100194.53;1774601;80;25432;-61
2023/06/19 17:37:25;;;;;;;6.70;6.10;;;;;;;26.24;40.88;100198.55;1774587;80;25529;-61
2023/06/19 17:39:53;;;;;;;8.73;7.58;;;;;;;26.17;40.65;100196.47;1774674;80;25414;-64
2023/06/19 17:42:20;;;;;;;11.78;7.08;;;;;;;26.11;41.22;100196.17;1774704;79;27537;-61
2023/06/19 17:44:46;;;;;;;14.55;11.08;;;;;;;26.05;41.27;100198.62;1774549;80;25414;-60
2023/06/19 17:47:12;;;;;;;9.33;8.33;;;;;;;26.01;41.50;100202.03;1774523;80;25416;-63
2023/06/19 17:49:39;;;;;;;9.63;7.00;;;;;;;25.95;41.79;100200.14;1774632;80;25518;-71
2023/06/19 17:52:07;;;;;;;8.60;7.22;;;;;;;25.91;41.67;100202.94;1774581;80;25348;-61
2023/06/19 17:54:34;;;;;;;8.55;7.75;;;;;;;25.86;41.99;100206.17;1774675;80;27509;-62
2023/06/19 17:57:00;;;;;;;7.92;7.12;;;;;;;25.81;41.94;100203.28;1774522;80;27336;-62
2023/06/19 17:59:28;;;;;;;8.48;7.67;;;;;;;25.78;42.08;100203.30;1774613;80;25174;-62
2023/06/19 18:01:54;;;;;;;10.30;7.97;;;;;;;25.73;42.35;100210.11;1774667;80;25631;-60
2023/06/19 18:04:21;;;;;;;68.42;64.32;;;;;;;25.68;42.41;100202.27;1774724;80;25371;-61
2023/06/19 18:06:47;;;;;;;69.17;65.03;;;;;;;25.63;42.53;100211.03;1774594;80;27481;-62
2023/06/19 18:09:14;;;;;;;70.40;66.20;;;;;;;25.58;43.05;100208.72;1774521;80;25547;-62
2023/06/19 18:11:40;;;;;;;29.40;27.02;;;;;;;25.57;43.62;100205.75;1774603;80;25536;-61
2023/06/19 18:14:07;;;;;;;8.70;7.90;;;;;;;25.56;43.67;100216.05;1774598;80;25583;-67
2023/06/19 18:16:33;;;;;;;12.05;10.45;;;;;;;25.54;43.80;100218.45;1774634;80;25634;-68
2023/06/19 18:18:59;;;;;;;10.90;8.33;;;;;;;25.48;43.61;100218.10;1774603;80;27523;-65
2023/06/19 18:21:25;;;;;;;11.00;9.90;;;;;;;25.46;43.69;100219.73;1774581;80;27410;-66
2023/06/19 18:23:51;;;;;;;9.80;8.78;;;;;;;25.41;44.07;100222.95;1774773;80;25366;-62
2023/06/19 18:26:17;;;;;;;54.18;48.28;;;;;;;25.34;44.38;100221.05;1774777;80;25826;-62
2023/06/19 18:28:44;;;;;;;33.10;29.60;;;;;;;25.26;44.50;100225.86;1773741;80;25662;-62
2023/06/19 18:31:11;;;;;;;13.53;12.20;;;;;;;25.19;44.40;100224.52;1774880;80;27431;-60
2023/06/19 18:33:37;;;;;;;10.58;9.53;;;;;;;25.12;44.63;100225.98;1774789;80;25546;-61
2023/06/19 18:36:05;;;;;;;10.80;9.58;;;;;;;25.04;44.84;100224.47;1774824;80;25494;-61
2023/06/19 18:38:32;;;;;;;13.08;11.80;;;;;;;24.97;45.32;100235.01;1774741;80;25396;-61
2023/06/19 18:40:58;;;;;;;13.40;12.10;;;;;;;24.89;45.38;100234.88;1774797;80;25633;-61
2023/06/19 18:43:24;;;;;;;12.20;10.25;;;;;;;24.79;45.79;100236.53;1774577;80;27458;-62
2023/06/19 18:45:52;;;;;;;11.35;10.25;;;;;;;24.68;45.51;100243.53;1773934;80;25443;-59
2023/06/19 18:48:19;;;;;;;11.78;10.53;;;;;;;24.55;45.54;100238.30;1774240;80;25524;-63
2023/06/19 18:50:48;;;;;;;11.83;10.68;;;;;;;24.45;45.96;100240.52;1774759;80;25551;-62
2023/06/19 18:53:14;;;;;;;11.25;10.15;;;;;;;24.31;46.01;100253.23;1774927;80;25389;-61
2023/06/19 18:55:40;;;;;;;10.98;9.88;;;;;;;24.20;46.21;100251.91;1774818;80;27627;-60
2023/06/19 18:58:06;;;;;;;11.30;10.15;;;;;;;24.10;46.64;100252.77;1774719;80;25440;-60
2023/06/19 19:00:32;;;;;;;11.75;10.68;;;;;;;24.01;47.31;100253.20;1774714;80;25442;-60
2023/06/19 19:02:58;;;;;;;12.95;11.57;;;;;;;23.93;47.67;100257.78;1774753;80;25566;-62
2023/06/19 19:05:25;;;;;;;22.30;19.73;;;;;;;23.81;48.04;100257.59;1774807;80;25590;-62
2023/06/19 19:07:51;;;;;;;11.70;10.60;;;;;;;23.69;48.88;100260.20;1774779;80;27534;-61
2023/06/19 19:10:17;;;;;;;11.60;10.43;;;;;;;23.58;49.64;100263.00;1774792;80;25889;-60
2023/06/19 19:12:44;;;;;;;12.68;11.15;;;;;;;23.44;49.05;100263.02;1774775;80;25601;-62
2023/06/19 19:15:10;;;;;;;15.60;11.63;;;;;;;23.30;49.36;100263.84;1774744;80;25593;-61
2023/06/19 19:17:37;;;;;;;14.35;11.20;;;;;;;23.16;49.85;100264.65;1774838;80;25436;-61
2023/06/19 19:20:07;;;;;;;12.25;11.05;;;;;;;23.01;49.90;100263.84;1774728;80;27483;-60
2023/06/19 19:22:34;;;;;;;14.73;13.32;;;;;;;22.88;50.02;100266.22;1774623;80;25789;-60
2023/06/19 19:25:01;;;;;;;17.07;12.20;;;;;;;22.75;50.19;100265.80;1774871;80;25596;-62
2023/06/19 19:27:27;;;;;;;13.62;11.97;;;;;;;22.66;50.27;100270.12;1774749;80;25550;-63
2023/06/19 19:29:53;;;;;;;20.50;16.07;;;;;;;22.54;50.65;100262.44;1774793;80;25448;-63
2023/06/19 19:32:21;;;;;;;16.70;14.40;;;;;;;22.44;51.12;100265.16;1774767;80;27481;-62
2023/06/19 19:34:49;;;;;;;15.68;13.83;;;;;;;22.33;51.29;100266.52;1774636;79;27299;-61
2023/06/19 19:37:15;;;;;;;16.42;13.38;;;;;;;22.23;52.27;100265.27;1773882;80;25536;-62
2023/06/19 19:39:42;;;;;;;15.23;12.50;;;;;;;22.14;52.67;100263.48;1774743;80;25533;-62
2023/06/19 19:42:09;;;;;;;17.25;13.75;;;;;;;22.05;53.04;100265.23;1774710;80;25444;-62
2023/06/19 19:44:35;;;;;;;13.78;12.45;;;;;;;21.99;53.55;100266.17;1774758;80;27491;-63
2023/06/19 19:47:01;;;;;;;15.53;13.45;;;;;;;21.90;53.44;100262.22;1774715;80;25446;-62
2023/06/19 19:49:28;;;;;;;15.63;14.00;;;;;;;21.85;53.87;100267.50;1774313;80;25360;-62
2023/06/19 19:51:54;;;;;;;17.02;15.23;;;;;;;21.79;54.79;100260.21;1774247;80;27805;-62
2023/06/19 19:54:20;;;;;;;18.70;15.95;;;;;;;21.70;54.46;100263.89;1774220;80;25616;-59
2023/06/19 19:56:46;;;;;;;23.27;20.25;;;;;;;21.63;54.51;100266.02;1774158;80;27532;-62
2023/06/19 19:59:12;;;;;;;23.40;20.90;;;;;;;21.55;54.99;100264.39;1774138;80;25661;-52
2023/06/19 20:01:39;;;;;;;28.25;24.65;;;;;;;21.48;55.66;100270.45;1774063;80;25626;-59
2023/06/19 20:04:05;;;;;;;17.45;15.75;;;;;;;21.42;55.75;100281.01;1773072;80;26211;-60
2023/06/19 20:06:31;;;;;;;17.17;15.38;;;;;;;21.35;56.41;100274.87;1771620;80;25634;-60
2023/06/19 20:08:57;;;;;;;26.90;17.20;;;;;;;21.29;56.48;100279.73;1771607;80;27472;-67
2023/06/19 20:11:23;;;;;;;17.62;15.78;;;;;;;21.22;57.80;100275.75;1771616;80;26052;-69
2023/06/19 20:13:49;;;;;;;18.92;15.35;;;;;;;21.14;58.09;100278.23;1771733;80;25687;-68
2023/06/19 20:16:15;;;;;;;17.62;15.53;;;;;;;21.07;58.18;100278.97;1771578;80;25702;-71
2023/06/19 20:18:41;;;;;;;20.25;15.38;;;;;;;20.99;58.64;100275.17;1771641;80;25448;-69
2023/06/19 20:21:08;;;;;;;17.40;15.70;;;;;;;20.91;59.74;100282.58;1773051;80;27509;-66
2023/06/19 20:23:35;;;;;;;17.32;15.53;;;;;;;20.83;59.24;100277.59;1773046;80;25934;-68
2023/06/19 20:26:01;;;;;;;21.87;18.10;;;;;;;20.77;59.20;100282.44;1773130;80;25627;-67
2023/06/19 20:28:29;;;;;;;16.50;14.90;;;;;;;20.68;59.86;100284.13;1746823;80;25445;-66
2023/06/19 20:30:55;;;;;;;19.55;15.78;;;;;;;20.59;59.79;100287.16;1773177;80;25457;-66
2023/06/19 20:33:22;;;;;;;19.00;15.72;;;;;;;20.53;59.88;100287.28;1773066;80;27484;-68
2023/06/19 20:35:49;;;;;;;18.05;16.15;;;;;;;20.44;60.44;100287.59;1773023;80;25763;-66
2023/06/19 20:38:16;;;;;;;19.05;15.15;;;;;;;20.36;61.15;100290.04;1773140;80;25622;-67
2023/06/19 20:40:42;;;;;;;18.02;16.00;;;;;;;20.25;60.95;100287.19;1773114;80;25504;-69
2023/06/19 20:43:09;;;;;;;20.37;16.05;;;;;;;20.19;61.71;100288.67;1773174;80;25605;-68
2023/06/19 20:45:35;;;;;;;20.30;16.20;;;;;;;20.10;61.64;100290.93;1773118;80;27484;-70
2023/06/19 20:48:02;;;;;;;17.12;15.35;;;;;;;20.04;62.20;100289.11;1773044;80;25824;-68
2023/06/19 20:50:28;;;;;;;19.20;16.32;;;;;;;19.98;62.07;100291.17;1773103;80;25370;-64
2023/06/19 20:52:54;;;;;;;40.88;30.88;;;;;;;19.91;62.17;100289.91;1772987;80;25722;-62
2023/06/19 20:55:21;;;;;;;25.35;17.80;;;;;;;19.86;62.76;100285.34;1773059;80;25385;-63
2023/06/19 20:57:47;;;;;;;20.97;16.35;;;;;;;19.81;62.56;100288.41;1773119;80;27517;-64
2023/06/19 21:00:15;;;;;;;22.25;16.55;;;;;;;19.77;62.46;100289.73;1772932;80;25788;-63
2023/06/19 21:02:42;;;;;;;19.93;15.83;;;;;;;19.73;62.97;100293.77;1773266;80;25537;-62
2023/06/19 21:05:15;;;;;;;22.37;15.83;;;;;;;19.68;63.05;100287.80;1773026;80;25488;-64
2023/06/19 21:07:44;;;;;;;19.57;17.48;;;;;;;19.61;62.87;100288.48;1773118;80;25565;-58
2023/06/19 21:10:11;;;;;;;19.70;16.70;;;;;;;19.57;63.90;100292.55;1772867;80;27535;-57
2023/06/19 21:12:38;;;;;;;22.95;16.80;;;;;;;19.53;64.13;100288.17;1773089;80;25391;-65
2023/06/19 21:15:07;;;;;;;20.05;17.48;;;;;;;19.44;63.96;100288.44;1773208;80;25545;-64
2023/06/19 21:17:33;;;;;;;33.88;25.65;;;;;;;19.38;64.30;100287.97;1773214;80;25610;-56
2023/06/19 21:19:59;;;;;;;23.12;20.20;;;;;;;19.34;64.72;100286.33;1773129;80;25437;-62